Terminal Aerodrome Forecast
Issued by NWS Albany, NY

Home | Current Version | Previous Version | Text Only | Print | Product List | Glossary On
Versions: 1 2 3 4 5 6 7 8 9 10 11 12 13 14 15 16 17 18 19 20
850
FTUS41 KALY 230539
TAFPOU
TAF
KPOU 230539Z 2306/2406 22007KT P6SM BKN040 BKN100
     FM231100 25006KT P6SM SCT050 SCT100
     FM231600 29008KT P6SM SCT050
     FM232300 VRB03KT P6SM FEW050=

USA.gov is the U.S. government's official web portal to all federal, state and local government web resources and services.